createdAt,value
2022-12-22T00:00:45.317Z,428.00
2022-12-22T00:01:50.002Z,429.00
2022-12-22T00:02:45.496Z,429.00
2022-12-22T00:03:45.492Z,428.00
2022-12-22T00:04:45.266Z,427.00
2022-12-22T00:05:45.373Z,425.00
2022-12-22T00:06:45.237Z,427.00
2022-12-22T00:07:45.354Z,427.00
2022-12-22T00:08:45.204Z,426.00
2022-12-22T00:09:45.335Z,426.00
2022-12-22T00:10:45.175Z,425.00
2022-12-22T00:11:45.265Z,425.00
2022-12-22T00:12:45.153Z,424.00
2022-12-22T00:13:45.363Z,427.00
2022-12-22T00:14:45.126Z,427.00
2022-12-22T00:15:45.253Z,425.00
2022-12-22T00:16:45.138Z,426.00
2022-12-22T00:17:45.190Z,426.00
2022-12-22T00:18:45.078Z,425.00
2022-12-22T00:19:45.164Z,426.00
2022-12-22T00:20:45.064Z,426.00
2022-12-22T00:21:46.182Z,425.00
2022-12-22T00:22:45.019Z,426.00
2022-12-22T00:23:45.083Z,426.00
2022-12-22T00:24:44.983Z,426.00
2022-12-22T00:25:45.062Z,423.00
2022-12-22T00:26:44.952Z,423.00
2022-12-22T00:27:45.833Z,423.00
2022-12-22T00:28:44.931Z,426.00
2022-12-22T00:29:45.089Z,423.00
2022-12-22T00:30:44.976Z,422.00
2022-12-22T00:31:45.080Z,422.00
2022-12-22T00:32:44.882Z,421.00
2022-12-22T00:33:44.970Z,423.00
2022-12-22T00:34:44.862Z,421.00
2022-12-22T00:35:44.991Z,423.00
2022-12-22T00:36:44.840Z,423.00
2022-12-22T00:37:44.974Z,422.00
2022-12-22T00:38:44.804Z,425.00
2022-12-22T00:39:44.962Z,425.00
2022-12-22T00:40:44.779Z,421.00
2022-12-22T00:41:44.792Z,423.00
2022-12-22T00:42:44.752Z,421.00
2022-12-22T00:43:44.860Z,422.00
2022-12-22T00:44:44.729Z,423.00
2022-12-22T00:45:44.928Z,426.00
2022-12-22T00:46:44.690Z,425.00
2022-12-22T00:47:45.828Z,425.00
2022-12-22T00:48:44.679Z,426.00
2022-12-22T00:49:44.799Z,428.00
2022-12-22T00:50:44.658Z,427.00
2022-12-22T00:51:44.687Z,428.00
2022-12-22T00:52:44.683Z,428.00
2022-12-22T00:53:44.702Z,427.00
2022-12-22T00:54:44.595Z,427.00
2022-12-22T00:55:44.703Z,426.00
2022-12-22T00:56:44.573Z,426.00
2022-12-22T00:57:44.808Z,426.00
2022-12-22T00:58:44.538Z,428.00
2022-12-22T00:59:44.717Z,428.00
2022-12-22T01:00:44.524Z,429.00
2022-12-22T01:01:44.730Z,430.00
2022-12-22T01:02:44.662Z,430.00
2022-12-22T01:03:44.632Z,428.00
2022-12-22T01:04:44.467Z,426.00
2022-12-22T01:06:06.533Z,426.00
2022-12-22T01:06:44.437Z,426.00
2022-12-22T01:07:44.622Z,427.00
2022-12-22T01:08:44.416Z,428.00
2022-12-22T01:09:44.527Z,427.00
2022-12-22T01:10:44.393Z,430.00
2022-12-22T01:11:44.429Z,431.00
2022-12-22T01:12:44.371Z,430.00
2022-12-22T01:13:44.517Z,428.00
2022-12-22T01:14:44.325Z,427.00
2022-12-22T01:15:44.540Z,426.00
2022-12-22T01:16:44.307Z,427.00
2022-12-22T01:17:44.427Z,425.00
2022-12-22T01:18:44.282Z,426.00
2022-12-22T01:19:44.315Z,428.00
2022-12-22T01:20:44.257Z,426.00
2022-12-22T01:21:45.323Z,426.00
2022-12-22T01:22:44.233Z,427.00
2022-12-22T01:23:44.334Z,426.00
2022-12-22T01:24:44.193Z,424.00
2022-12-22T01:25:44.323Z,423.00
2022-12-22T01:26:44.200Z,424.00
2022-12-22T01:27:45.335Z,423.00
2022-12-22T01:28:44.156Z,423.00
2022-12-22T01:29:44.264Z,423.00
2022-12-22T01:30:44.177Z,423.00
2022-12-22T01:31:44.229Z,424.00
2022-12-22T01:32:44.085Z,422.00
2022-12-22T01:33:45.240Z,421.00
2022-12-22T01:34:44.064Z,421.00
2022-12-22T01:35:44.261Z,422.00
2022-12-22T01:36:44.038Z,422.00
2022-12-22T01:37:44.135Z,423.00
2022-12-22T01:38:44.024Z,422.00
2022-12-22T01:39:44.121Z,423.00
2022-12-22T01:40:44.014Z,422.00
2022-12-22T01:41:44.062Z,421.00
2022-12-22T01:42:43.960Z,422.00
2022-12-22T01:43:44.153Z,424.00
2022-12-22T01:44:43.930Z,423.00
2022-12-22T01:45:46.112Z,424.00
2022-12-22T01:46:43.947Z,423.00
2022-12-22T01:47:43.968Z,423.00
2022-12-22T01:48:43.879Z,423.00
2022-12-22T01:49:44.051Z,426.00
2022-12-22T01:50:43.874Z,429.00
2022-12-22T01:51:43.937Z,425.00
2022-12-22T01:52:43.848Z,426.00
2022-12-22T01:53:43.984Z,426.00
2022-12-22T01:54:43.801Z,427.00
2022-12-22T01:55:45.908Z,428.00
2022-12-22T01:56:43.768Z,428.00
2022-12-22T01:57:43.858Z,426.00
2022-12-22T01:58:43.747Z,426.00
2022-12-22T01:59:43.933Z,423.00
2022-12-22T02:00:43.757Z,423.00
2022-12-22T02:01:44.976Z,423.00
2022-12-22T02:02:43.754Z,423.00
2022-12-22T02:03:43.915Z,422.00
2022-12-22T02:04:43.668Z,421.00
2022-12-22T02:05:43.791Z,420.00
2022-12-22T02:06:43.658Z,420.00
2022-12-22T02:07:45.813Z,421.00
2022-12-22T02:08:43.618Z,420.00
2022-12-22T02:09:45.749Z,422.00
2022-12-22T02:10:43.612Z,424.00
2022-12-22T02:11:44.710Z,425.00
2022-12-22T02:12:43.568Z,426.00
2022-12-22T02:13:43.767Z,424.00
2022-12-22T02:14:43.534Z,425.00
2022-12-22T02:15:43.700Z,426.00
2022-12-22T02:16:43.507Z,426.00
2022-12-22T02:17:43.588Z,429.00
2022-12-22T02:18:43.487Z,429.00
2022-12-22T02:19:43.684Z,429.00
2022-12-22T02:20:43.465Z,428.00
2022-12-22T02:21:43.571Z,429.00
2022-12-22T02:22:43.439Z,429.00
2022-12-22T02:23:43.484Z,426.00
2022-12-22T02:24:43.417Z,428.00
2022-12-22T02:25:46.755Z,429.00
2022-12-22T02:26:43.384Z,429.00
2022-12-22T02:27:43.463Z,430.00
2022-12-22T02:28:43.406Z,435.00
2022-12-22T02:29:43.500Z,435.00
2022-12-22T02:30:43.360Z,435.00
2022-12-22T02:31:46.853Z,434.00
2022-12-22T02:32:43.480Z,432.00
2022-12-22T02:33:43.389Z,431.00
2022-12-22T02:34:43.340Z,430.00
2022-12-22T02:35:43.404Z,430.00
2022-12-22T02:36:43.283Z,424.00
2022-12-22T02:37:43.340Z,422.00
2022-12-22T02:38:43.235Z,424.00
2022-12-22T02:39:43.402Z,424.00
2022-12-22T02:40:43.202Z,424.00
2022-12-22T02:41:43.348Z,428.00
2022-12-22T02:42:43.214Z,426.00
2022-12-22T02:43:43.244Z,424.00
2022-12-22T02:44:43.154Z,426.00
2022-12-22T02:45:43.320Z,427.00
2022-12-22T02:46:43.172Z,427.00
2022-12-22T02:47:43.210Z,426.00
2022-12-22T02:48:43.152Z,428.00
2022-12-22T02:49:43.270Z,428.00
2022-12-22T02:50:43.072Z,430.00
2022-12-22T02:51:43.192Z,429.00
2022-12-22T02:52:43.048Z,428.00
2022-12-22T02:53:43.079Z,427.00
2022-12-22T02:54:43.043Z,427.00
2022-12-22T02:55:44.200Z,429.00
2022-12-22T02:56:43.001Z,427.00
2022-12-22T02:57:43.103Z,426.00
2022-12-22T02:58:42.963Z,428.00
2022-12-22T02:59:43.128Z,428.00
2022-12-22T03:00:42.958Z,428.00
2022-12-22T03:01:45.191Z,432.00
2022-12-22T03:02:43.154Z,433.00
2022-12-22T03:03:43.168Z,433.00
2022-12-22T03:04:42.879Z,432.00
2022-12-22T03:05:43.042Z,433.00
2022-12-22T03:06:42.897Z,431.00
2022-12-22T03:08:08.301Z,430.00
2022-12-22T03:08:42.835Z,432.00
2022-12-22T03:09:42.904Z,429.00
2022-12-22T03:10:42.808Z,430.00
2022-12-22T03:11:42.937Z,429.00
2022-12-22T03:12:42.819Z,431.00
2022-12-22T03:14:03.846Z,434.00
2022-12-22T03:14:42.763Z,435.00
2022-12-22T03:15:43.867Z,432.00
2022-12-22T03:16:42.789Z,433.00
2022-12-22T03:17:42.845Z,434.00
2022-12-22T03:18:42.717Z,435.00
2022-12-22T03:19:44.776Z,436.00
2022-12-22T03:20:42.677Z,435.00
2022-12-22T03:21:42.812Z,433.00
2022-12-22T03:22:42.656Z,433.00
2022-12-22T03:23:42.747Z,431.00
2022-12-22T03:24:42.648Z,431.00
2022-12-22T03:26:52.063Z,495.00
2022-12-22T03:27:51.967Z,439.00
2022-12-22T03:28:52.101Z,436.00
2022-12-22T03:29:51.948Z,432.00
2022-12-22T03:30:53.062Z,431.00
2022-12-22T03:31:51.979Z,432.00
2022-12-22T03:32:52.083Z,428.00
2022-12-22T03:33:51.882Z,429.00
2022-12-22T03:34:52.005Z,431.00
2022-12-22T03:35:51.873Z,431.00
2022-12-22T03:36:51.941Z,431.00
2022-12-22T03:37:51.823Z,431.00
2022-12-22T03:38:51.973Z,430.00
2022-12-22T03:39:51.802Z,429.00
2022-12-22T03:40:51.911Z,432.00
2022-12-22T03:41:51.796Z,432.00
2022-12-22T03:42:53.934Z,432.00
2022-12-22T03:43:51.757Z,431.00
2022-12-22T03:44:51.930Z,431.00
2022-12-22T03:45:51.723Z,430.00
2022-12-22T03:46:51.841Z,428.00
2022-12-22T03:47:51.735Z,429.00
2022-12-22T03:48:51.771Z,431.00
2022-12-22T03:49:51.681Z,432.00
2022-12-22T03:50:51.784Z,433.00
2022-12-22T03:51:51.641Z,429.00
2022-12-22T03:52:51.720Z,434.00
2022-12-22T03:53:51.651Z,432.00
2022-12-22T03:54:52.683Z,434.00
2022-12-22T03:55:51.608Z,432.00
2022-12-22T03:56:51.693Z,432.00
2022-12-22T03:57:51.588Z,433.00
2022-12-22T03:58:51.729Z,431.00
2022-12-22T03:59:51.560Z,431.00
2022-12-22T04:00:51.614Z,433.00
2022-12-22T04:01:51.742Z,433.00
2022-12-22T04:02:51.700Z,433.00
2022-12-22T04:03:51.481Z,431.00
2022-12-22T04:04:51.639Z,431.00
2022-12-22T04:05:51.485Z,432.00
2022-12-22T04:06:51.571Z,433.00
2022-12-22T04:07:51.438Z,432.00
2022-12-22T04:08:51.615Z,430.00
2022-12-22T04:09:51.411Z,432.00
2022-12-22T04:10:53.531Z,433.00
2022-12-22T04:11:51.410Z,431.00
2022-12-22T04:12:51.476Z,430.00
2022-12-22T04:13:51.374Z,431.00
2022-12-22T04:14:51.510Z,430.00
2022-12-22T04:15:51.329Z,430.00
2022-12-22T04:16:51.534Z,430.00
2022-12-22T04:17:51.328Z,432.00
2022-12-22T04:18:51.487Z,429.00
2022-12-22T04:19:51.277Z,428.00
2022-12-22T04:20:51.323Z,425.00
2022-12-22T04:21:51.257Z,425.00
2022-12-22T04:22:53.447Z,427.00
2022-12-22T04:23:51.306Z,427.00
2022-12-22T04:24:51.316Z,428.00
2022-12-22T04:25:51.212Z,430.00
2022-12-22T04:26:51.319Z,427.00
2022-12-22T04:27:51.177Z,420.00
2022-12-22T04:28:51.279Z,420.00
2022-12-22T04:29:51.177Z,423.00
2022-12-22T04:30:51.285Z,425.00
2022-12-22T04:31:51.151Z,425.00
2022-12-22T04:32:51.225Z,427.00
2022-12-22T04:33:51.105Z,428.00
2022-12-22T04:34:52.184Z,425.00
2022-12-22T04:35:51.109Z,426.00
2022-12-22T04:36:51.212Z,424.00
2022-12-22T04:37:51.051Z,426.00
2022-12-22T04:38:51.129Z,426.00
2022-12-22T04:39:51.026Z,424.00
2022-12-22T04:40:52.086Z,425.00
2022-12-22T04:41:51.024Z,424.00
2022-12-22T04:42:51.105Z,425.00
2022-12-22T04:43:50.974Z,424.00
2022-12-22T04:44:52.163Z,424.00
2022-12-22T04:45:51.008Z,425.00
2022-12-22T04:46:51.085Z,425.00
2022-12-22T04:47:50.943Z,427.00
2022-12-22T04:48:56.022Z,429.00
2022-12-22T04:49:51.912Z,429.00
2022-12-22T04:50:50.993Z,426.00
2022-12-22T04:51:50.862Z,428.00
2022-12-22T04:52:51.933Z,426.00
2022-12-22T04:53:50.882Z,428.00
2022-12-22T04:54:50.922Z,428.00
2022-12-22T04:55:50.824Z,427.00
2022-12-22T04:56:50.848Z,425.00
2022-12-22T04:57:50.801Z,425.00
2022-12-22T04:58:50.896Z,426.00
2022-12-22T04:59:50.781Z,427.00
2022-12-22T05:00:50.930Z,427.00
2022-12-22T05:01:50.905Z,427.00
2022-12-22T05:02:50.927Z,428.00
2022-12-22T05:03:50.821Z,429.00
2022-12-22T05:04:50.891Z,429.00
2022-12-22T05:05:50.720Z,431.00
2022-12-22T05:06:50.750Z,431.00
2022-12-22T05:07:50.684Z,431.00
2022-12-22T05:08:50.777Z,429.00
2022-12-22T05:09:50.633Z,428.00
2022-12-22T05:10:51.724Z,429.00
2022-12-22T05:11:50.644Z,427.00
2022-12-22T05:12:50.738Z,426.00
2022-12-22T05:13:50.611Z,426.00
2022-12-22T05:14:50.671Z,427.00
2022-12-22T05:15:50.561Z,429.00
2022-12-22T05:16:50.658Z,431.00
2022-12-22T05:17:50.548Z,432.00
2022-12-22T05:18:50.641Z,432.00
2022-12-22T05:19:50.509Z,431.00
2022-12-22T05:20:50.676Z,429.00
2022-12-22T05:21:50.488Z,429.00
2022-12-22T05:22:50.617Z,432.00
2022-12-22T05:23:50.487Z,432.00
2022-12-22T05:24:50.540Z,436.00
2022-12-22T05:25:50.431Z,436.00
2022-12-22T05:26:50.536Z,434.00
2022-12-22T05:27:50.407Z,433.00
2022-12-22T05:28:50.514Z,431.00
2022-12-22T05:29:50.407Z,431.00
2022-12-22T05:30:50.611Z,432.00
2022-12-22T05:31:50.356Z,431.00
2022-12-22T05:32:50.496Z,429.00
2022-12-22T05:33:50.330Z,431.00
2022-12-22T05:34:50.414Z,429.00
2022-12-22T05:35:50.327Z,428.00
2022-12-22T05:36:50.357Z,427.00
2022-12-22T05:37:50.275Z,424.00
2022-12-22T05:38:50.398Z,427.00
2022-12-22T05:39:50.264Z,429.00
2022-12-22T05:40:50.428Z,428.00
2022-12-22T05:41:50.237Z,428.00
2022-12-22T05:42:50.272Z,428.00
2022-12-22T05:43:50.196Z,429.00
2022-12-22T05:44:50.284Z,429.00
2022-12-22T05:45:50.277Z,425.00
2022-12-22T05:46:50.341Z,425.00
2022-12-22T05:47:50.184Z,425.00
2022-12-22T05:48:50.267Z,427.00
2022-12-22T05:49:50.128Z,428.00
2022-12-22T05:50:50.303Z,432.00
2022-12-22T05:51:50.117Z,431.00
2022-12-22T05:52:50.141Z,432.00
2022-12-22T05:53:50.083Z,434.00
2022-12-22T05:54:50.182Z,434.00
2022-12-22T05:55:50.044Z,433.00
2022-12-22T05:56:50.212Z,432.00
2022-12-22T05:57:50.032Z,432.00
2022-12-22T05:58:50.144Z,431.00
2022-12-22T05:59:50.012Z,433.00
2022-12-22T06:00:50.073Z,436.00
2022-12-22T06:01:50.026Z,439.00
2022-12-22T06:02:50.092Z,437.00
2022-12-22T06:03:53.411Z,436.00
2022-12-22T06:04:50.950Z,437.00
2022-12-22T06:06:10.992Z,435.00
2022-12-22T06:06:49.908Z,435.00
2022-12-22T06:07:49.960Z,440.00
2022-12-22T06:08:49.873Z,437.00
2022-12-22T06:09:49.989Z,437.00
2022-12-22T06:10:49.868Z,440.00
2022-12-22T06:11:50.022Z,439.00
2022-12-22T06:12:49.835Z,438.00
2022-12-22T06:13:49.960Z,437.00
2022-12-22T06:14:49.801Z,436.00
2022-12-22T06:15:49.982Z,435.00
2022-12-22T06:16:49.790Z,437.00
2022-12-22T06:17:49.832Z,435.00
2022-12-22T06:18:49.751Z,432.00
2022-12-22T06:19:49.890Z,437.00
2022-12-22T06:20:49.721Z,439.00
2022-12-22T06:21:49.908Z,436.00
2022-12-22T06:22:49.720Z,439.00
2022-12-22T06:23:49.729Z,437.00
2022-12-22T06:24:49.670Z,434.00
2022-12-22T06:25:50.794Z,435.00
2022-12-22T06:26:49.632Z,435.00
2022-12-22T06:27:49.709Z,434.00
2022-12-22T06:28:49.628Z,435.00
2022-12-22T06:29:49.747Z,435.00
2022-12-22T06:30:49.634Z,433.00
2022-12-22T06:32:10.752Z,435.00
2022-12-22T06:32:49.571Z,434.00
2022-12-22T06:33:49.619Z,434.00
2022-12-22T06:34:49.567Z,434.00
2022-12-22T06:35:53.952Z,436.00
2022-12-22T06:36:50.525Z,436.00
2022-12-22T06:37:49.576Z,438.00
2022-12-22T06:38:49.487Z,437.00
2022-12-22T06:39:49.617Z,438.00
2022-12-22T06:40:49.466Z,437.00
2022-12-22T06:41:49.647Z,439.00
2022-12-22T06:42:49.446Z,440.00
2022-12-22T06:43:49.484Z,441.00
2022-12-22T06:44:49.416Z,440.00
2022-12-22T06:45:49.521Z,438.00
2022-12-22T06:46:49.474Z,438.00
2022-12-22T06:47:50.488Z,437.00
2022-12-22T06:48:49.356Z,436.00
2022-12-22T06:50:58.884Z,493.00
2022-12-22T06:51:58.676Z,442.00
2022-12-22T06:52:58.819Z,436.00
2022-12-22T06:53:58.644Z,434.00
2022-12-22T06:54:58.740Z,435.00
2022-12-22T06:55:58.613Z,438.00
2022-12-22T06:56:58.805Z,440.00
2022-12-22T06:57:58.604Z,437.00
2022-12-22T06:58:58.714Z,436.00
2022-12-22T06:59:58.557Z,433.00
2022-12-22T07:00:58.653Z,433.00
2022-12-22T07:01:58.614Z,434.00
2022-12-22T07:02:58.911Z,435.00
2022-12-22T07:03:58.658Z,435.00
2022-12-22T07:04:58.612Z,434.00
2022-12-22T07:05:58.491Z,433.00
2022-12-22T07:06:58.550Z,432.00
2022-12-22T07:08:04.017Z,430.00
2022-12-22T07:08:59.464Z,434.00
2022-12-22T07:09:58.552Z,433.00
2022-12-22T07:10:58.427Z,435.00
2022-12-22T07:11:58.491Z,435.00
2022-12-22T07:12:58.389Z,434.00
2022-12-22T07:13:59.460Z,434.00
2022-12-22T07:14:58.381Z,436.00
2022-12-22T07:16:00.954Z,437.00
2022-12-22T07:16:58.337Z,435.00
2022-12-22T07:17:58.490Z,437.00
2022-12-22T07:18:58.311Z,435.00
2022-12-22T07:19:59.459Z,432.00
2022-12-22T07:20:58.298Z,433.00
2022-12-22T07:21:58.362Z,433.00
2022-12-22T07:22:58.261Z,433.00
2022-12-22T07:23:58.402Z,435.00
2022-12-22T07:24:58.234Z,437.00
2022-12-22T07:25:58.376Z,434.00
2022-12-22T07:26:58.225Z,433.00
2022-12-22T07:28:21.360Z,437.00
2022-12-22T07:28:58.180Z,430.00
2022-12-22T07:29:58.200Z,437.00
2022-12-22T07:30:58.257Z,440.00
2022-12-22T07:31:58.283Z,438.00
2022-12-22T07:32:58.167Z,434.00
2022-12-22T07:33:58.292Z,435.00
2022-12-22T07:35:03.222Z,435.00
2022-12-22T07:35:59.086Z,434.00
2022-12-22T07:36:58.184Z,431.00
2022-12-22T07:37:58.087Z,434.00
2022-12-22T07:39:01.439Z,432.00
2022-12-22T07:39:58.037Z,434.00
2022-12-22T07:41:04.326Z,432.00
2022-12-22T07:41:59.024Z,432.00
2022-12-22T07:42:58.188Z,433.00
2022-12-22T07:43:57.998Z,433.00
2022-12-22T07:44:58.093Z,435.00
2022-12-22T07:45:57.968Z,432.00
2022-12-22T07:46:58.075Z,433.00
2022-12-22T07:47:57.940Z,436.00
2022-12-22T07:48:58.086Z,436.00
2022-12-22T07:49:57.921Z,436.00
2022-12-22T07:51:00.134Z,433.00
2022-12-22T07:51:57.884Z,435.00
2022-12-22T07:52:57.973Z,438.00
2022-12-22T07:53:57.856Z,439.00
2022-12-22T07:54:57.997Z,438.00
2022-12-22T07:55:57.834Z,437.00
2022-12-22T07:56:59.952Z,438.00
2022-12-22T07:57:57.804Z,438.00
2022-12-22T07:58:57.966Z,437.00
2022-12-22T07:59:57.785Z,438.00
2022-12-22T08:00:57.901Z,439.00
2022-12-22T08:01:57.806Z,439.00
2022-12-22T08:02:58.125Z,440.00
2022-12-22T08:03:57.733Z,441.00
2022-12-22T08:04:57.941Z,439.00
2022-12-22T08:05:57.707Z,437.00
2022-12-22T08:07:18.784Z,437.00
2022-12-22T08:07:57.671Z,438.00
2022-12-22T08:08:57.900Z,438.00
2022-12-22T08:09:57.656Z,436.00
2022-12-22T08:10:57.682Z,436.00
2022-12-22T08:11:57.635Z,438.00
2022-12-22T08:12:58.802Z,434.00
2022-12-22T08:14:01.581Z,436.00
2022-12-22T08:14:57.612Z,436.00
2022-12-22T08:15:57.645Z,437.00
2022-12-22T08:16:57.552Z,438.00
2022-12-22T08:17:57.649Z,437.00
2022-12-22T08:18:57.540Z,437.00
2022-12-22T08:19:57.690Z,436.00
2022-12-22T08:20:57.539Z,435.00
2022-12-22T08:21:58.660Z,432.00
2022-12-22T08:22:57.492Z,433.00
2022-12-22T08:23:57.668Z,433.00
2022-12-22T08:24:57.460Z,433.00
2022-12-22T08:25:57.470Z,431.00
2022-12-22T08:26:57.443Z,434.00
2022-12-22T08:27:57.530Z,433.00
2022-12-22T08:28:57.404Z,432.00
2022-12-22T08:30:18.561Z,434.00
2022-12-22T08:30:57.381Z,436.00
2022-12-22T08:31:59.624Z,436.00
2022-12-22T08:32:57.381Z,434.00
2022-12-22T08:33:57.432Z,431.00
2022-12-22T08:34:57.338Z,433.00
2022-12-22T08:36:01.208Z,432.00
2022-12-22T08:36:58.323Z,434.00
2022-12-22T08:38:18.406Z,433.00
2022-12-22T08:38:57.275Z,435.00
2022-12-22T08:39:57.371Z,432.00
2022-12-22T08:40:57.248Z,433.00
2022-12-22T08:41:57.377Z,433.00
2022-12-22T08:42:57.218Z,433.00
2022-12-22T08:43:57.258Z,432.00
2022-12-22T08:44:57.197Z,433.00
2022-12-22T08:45:57.245Z,433.00
2022-12-22T08:46:57.253Z,434.00
2022-12-22T08:47:57.228Z,434.00
2022-12-22T08:48:57.141Z,435.00
2022-12-22T08:49:57.264Z,438.00
2022-12-22T08:50:57.116Z,437.00
2022-12-22T08:51:57.257Z,439.00
2022-12-22T08:52:57.096Z,440.00
2022-12-22T08:54:06.573Z,440.00
2022-12-22T08:54:58.095Z,445.00
2022-12-22T08:55:57.133Z,442.00
2022-12-22T08:56:57.036Z,441.00
2022-12-22T08:57:57.156Z,440.00
2022-12-22T08:58:57.024Z,442.00
2022-12-22T08:59:57.197Z,440.00
2022-12-22T09:00:57.101Z,440.00
2022-12-22T09:01:57.175Z,441.00
2022-12-22T09:02:57.020Z,441.00
2022-12-22T09:03:57.092Z,440.00
2022-12-22T09:04:56.936Z,441.00
2022-12-22T09:05:57.003Z,438.00
2022-12-22T09:06:56.934Z,431.00
2022-12-22T09:09:06.308Z,487.00
2022-12-22T09:10:06.221Z,438.00
2022-12-22T09:11:06.366Z,438.00
2022-12-22T09:12:06.205Z,439.00
2022-12-22T09:13:08.397Z,441.00
2022-12-22T09:14:06.161Z,438.00
2022-12-22T09:15:06.322Z,437.00
2022-12-22T09:16:06.155Z,439.00
2022-12-22T09:17:06.198Z,436.00
2022-12-22T09:18:06.117Z,438.00
2022-12-22T09:19:06.195Z,440.00
2022-12-22T09:20:06.077Z,441.00
2022-12-22T09:21:06.226Z,442.00
2022-12-22T09:22:06.053Z,442.00
2022-12-22T09:23:06.176Z,437.00
2022-12-22T09:24:06.035Z,438.00
2022-12-22T09:25:06.195Z,437.00
2022-12-22T09:26:05.996Z,436.00
2022-12-22T09:27:06.125Z,435.00
2022-12-22T09:28:05.979Z,433.00
2022-12-22T09:29:06.078Z,434.00
2022-12-22T09:30:05.973Z,434.00
2022-12-22T09:31:07.016Z,432.00
2022-12-22T09:32:05.947Z,434.00
2022-12-22T09:33:06.036Z,431.00
2022-12-22T09:34:05.893Z,432.00
2022-12-22T09:35:05.968Z,431.00
2022-12-22T09:36:05.893Z,432.00
2022-12-22T09:37:06.947Z,432.00
2022-12-22T09:38:05.845Z,433.00
2022-12-22T09:39:05.941Z,432.00
2022-12-22T09:40:05.814Z,430.00
2022-12-22T09:41:05.974Z,434.00
2022-12-22T09:42:05.806Z,434.00
2022-12-22T09:43:05.916Z,436.00
2022-12-22T09:44:05.777Z,436.00
2022-12-22T09:45:05.843Z,432.00
2022-12-22T09:46:05.806Z,432.00
2022-12-22T09:47:05.880Z,431.00
2022-12-22T09:48:05.749Z,431.00
2022-12-22T09:49:05.813Z,429.00
2022-12-22T09:50:05.691Z,430.00
2022-12-22T09:51:05.853Z,428.00
2022-12-22T09:52:05.714Z,428.00
2022-12-22T09:53:08.332Z,428.00
2022-12-22T09:54:05.651Z,429.00
2022-12-22T09:55:05.725Z,428.00
2022-12-22T09:56:05.612Z,427.00
2022-12-22T09:57:05.763Z,427.00
2022-12-22T09:58:05.583Z,426.00
2022-12-22T09:59:06.727Z,428.00
2022-12-22T10:00:05.591Z,429.00
2022-12-22T10:01:05.700Z,428.00
2022-12-22T10:02:05.657Z,427.00
2022-12-22T10:03:05.589Z,428.00
2022-12-22T10:04:05.523Z,430.00
2022-12-22T10:05:06.620Z,431.00
2022-12-22T10:06:05.527Z,433.00
2022-12-22T10:07:06.560Z,433.00
2022-12-22T10:08:05.453Z,436.00
2022-12-22T10:09:20.426Z,434.00
2022-12-22T10:10:06.429Z,434.00
2022-12-22T10:11:05.609Z,437.00
2022-12-22T10:12:05.431Z,434.00
2022-12-22T10:13:05.438Z,434.00
2022-12-22T10:14:05.381Z,436.00
2022-12-22T10:15:05.476Z,432.00
2022-12-22T10:16:05.360Z,436.00
2022-12-22T10:17:05.540Z,432.00
2022-12-22T10:18:05.339Z,433.00
2022-12-22T10:19:05.438Z,431.00
2022-12-22T10:20:05.338Z,430.00
2022-12-22T10:21:05.398Z,432.00
2022-12-22T10:22:05.271Z,431.00
2022-12-22T10:23:05.308Z,430.00
2022-12-22T10:24:05.277Z,432.00
2022-12-22T10:25:05.345Z,431.00
2022-12-22T10:27:06.206Z,430.00
2022-12-22T10:28:06.282Z,429.00
2022-12-22T10:29:05.178Z,426.00
2022-12-22T10:30:05.340Z,426.00
2022-12-22T10:31:05.157Z,426.00
2022-12-22T10:32:05.403Z,425.00
2022-12-22T10:33:05.135Z,427.00
2022-12-22T10:34:05.276Z,426.00
2022-12-22T10:35:05.100Z,425.00
2022-12-22T10:36:05.237Z,425.00
2022-12-22T10:37:05.103Z,425.00
2022-12-22T10:38:05.125Z,423.00
2022-12-22T10:39:06.062Z,419.00
2022-12-22T10:40:05.111Z,421.00
2022-12-22T10:41:05.027Z,421.00
2022-12-22T10:42:05.152Z,422.00
2022-12-22T10:43:05.027Z,422.00
2022-12-22T10:44:05.043Z,421.00
2022-12-22T10:45:04.981Z,422.00
2022-12-22T10:46:07.137Z,429.00
2022-12-22T10:47:04.953Z,426.00
2022-12-22T10:48:05.055Z,426.00
2022-12-22T10:49:04.931Z,426.00
2022-12-22T10:50:06.100Z,428.00
2022-12-22T10:51:04.896Z,429.00
2022-12-22T10:52:06.102Z,426.00
2022-12-22T10:53:04.875Z,427.00
2022-12-22T10:54:04.966Z,429.00
2022-12-22T10:55:04.849Z,427.00
2022-12-22T10:56:04.944Z,430.00
2022-12-22T10:57:04.816Z,430.00
2022-12-22T10:58:26.911Z,433.00
2022-12-22T10:59:04.805Z,432.00
2022-12-22T11:00:05.018Z,430.00
2022-12-22T11:01:04.848Z,430.00
2022-12-22T11:02:05.253Z,429.00
2022-12-22T11:03:04.965Z,430.00
2022-12-22T11:04:04.843Z,429.00
2022-12-22T11:05:04.742Z,429.00
2022-12-22T11:06:04.873Z,429.00
2022-12-22T11:07:04.692Z,426.00
2022-12-22T11:08:04.862Z,426.00
2022-12-22T11:09:31.926Z,427.00
2022-12-22T11:10:05.650Z,428.00
2022-12-22T11:11:04.644Z,427.00
2022-12-22T11:12:04.796Z,428.00
2022-12-22T11:13:04.621Z,427.00
2022-12-22T11:14:04.659Z,428.00
2022-12-22T11:15:04.589Z,427.00
2022-12-22T11:16:04.706Z,426.00
2022-12-22T11:17:04.599Z,425.00
2022-12-22T11:18:04.700Z,423.00
2022-12-22T11:19:04.539Z,422.00
2022-12-22T11:20:06.668Z,424.00
2022-12-22T11:21:04.520Z,420.00
2022-12-22T11:22:04.606Z,419.00
2022-12-22T11:23:04.483Z,420.00
2022-12-22T11:24:04.588Z,419.00
2022-12-22T11:25:04.458Z,421.00
2022-12-22T11:26:06.610Z,427.00
2022-12-22T11:27:04.432Z,424.00
2022-12-22T11:28:04.608Z,424.00
2022-12-22T11:29:04.439Z,427.00
2022-12-22T11:30:04.625Z,424.00
2022-12-22T11:31:04.440Z,425.00
2022-12-22T11:32:05.508Z,427.00
2022-12-22T11:33:04.359Z,426.00
2022-12-22T11:34:04.415Z,425.00
2022-12-22T11:35:04.328Z,425.00
2022-12-22T11:36:04.507Z,429.00
2022-12-22T11:37:04.316Z,429.00
2022-12-22T11:38:04.496Z,430.00
2022-12-22T11:39:04.292Z,429.00
2022-12-22T11:40:04.326Z,432.00
2022-12-22T11:41:04.261Z,431.00
2022-12-22T11:42:04.416Z,431.00
2022-12-22T11:43:04.232Z,431.00
2022-12-22T11:44:04.297Z,431.00
2022-12-22T11:45:04.210Z,429.00
2022-12-22T11:46:04.364Z,429.00
2022-12-22T11:47:04.186Z,428.00
2022-12-22T11:48:04.314Z,430.00
2022-12-22T11:49:04.190Z,430.00
2022-12-22T11:51:00.345Z,429.00
2022-12-22T11:51:09.110Z,430.00
2022-12-22T11:52:04.115Z,432.00
2022-12-22T11:53:04.209Z,430.00
2022-12-22T11:54:10.333Z,428.00
2022-12-22T11:55:05.082Z,433.00
2022-12-22T11:56:25.205Z,426.00
2022-12-22T11:57:04.069Z,423.00
2022-12-22T11:58:04.135Z,428.00
2022-12-22T11:59:04.016Z,427.00
2022-12-22T12:00:05.164Z,433.00
2022-12-22T12:01:16.284Z,431.00
2022-12-22T12:02:05.057Z,430.00
2022-12-22T12:03:04.103Z,430.00
2022-12-22T12:04:04.043Z,433.00
2022-12-22T12:05:04.027Z,431.00
2022-12-22T12:06:03.943Z,431.00
2022-12-22T12:07:06.143Z,433.00
2022-12-22T12:08:03.902Z,434.00
2022-12-22T12:09:04.083Z,433.00
2022-12-22T12:10:03.878Z,432.00
2022-12-22T12:11:04.026Z,430.00
2022-12-22T12:12:03.866Z,430.00
2022-12-22T12:13:03.973Z,428.00
2022-12-22T12:14:03.831Z,426.00
2022-12-22T12:15:03.885Z,426.00
2022-12-22T12:16:03.871Z,429.00
2022-12-22T12:17:03.920Z,428.00
2022-12-22T12:18:03.813Z,429.00
2022-12-22T12:19:04.891Z,429.00
2022-12-22T12:20:03.751Z,426.00
2022-12-22T12:21:03.788Z,425.00
2022-12-22T12:22:03.732Z,425.00
2022-12-22T12:23:03.832Z,426.00
2022-12-22T12:24:03.728Z,424.00
2022-12-22T12:25:03.767Z,426.00
2022-12-22T12:26:03.671Z,428.00
2022-12-22T12:27:03.799Z,428.00
2022-12-22T12:28:03.659Z,427.00
2022-12-22T12:29:03.845Z,426.00
2022-12-22T12:30:37.011Z,425.00
2022-12-22T12:31:04.680Z,427.00
2022-12-22T12:32:03.846Z,427.00
2022-12-22T12:33:03.589Z,426.00